Time;durP1;ratioP1;P1;durP2;ratioP2;P2;SDS_P1;SDS_P2;PMS_P1;PMS_P2;Temp;Humidity;BMP_temperature;BMP_pressure;BME280_temperature;BME280_humidity;BME280_pressure;Samples;Min_cycle;Max_cycle;Signal;HPM_P1;HPM_P2
2022/06/16 00:02:23;;;;;;;12.35;3.05;;;16.30;99.90;;;;;;5015158;28;20034;-76
2022/06/16 00:04:50;;;;;;;1.33;0.55;;;16.40;99.90;;;;;;5013976;28;20018;-75
2022/06/16 00:07:18;;;;;;;1.30;0.38;;;16.50;99.90;;;;;;5015263;28;20053;-76
2022/06/16 00:09:45;;;;;;;1.27;0.32;;;16.40;99.90;;;;;;5015129;28;20108;-76
2022/06/16 00:12:12;;;;;;;2.08;0.70;;;16.40;99.90;;;;;;5013802;28;20022;-77
2022/06/16 00:14:40;;;;;;;2.90;0.85;;;16.50;99.90;;;;;;5015072;28;20053;-77
2022/06/16 00:17:07;;;;;;;1.83;0.30;;;16.60;99.90;;;;;;5015127;28;20482;-77
2022/06/16 00:19:35;;;;;;;2.40;0.60;;;16.70;99.90;;;;;;5014119;28;20389;-77
2022/06/16 00:22:02;;;;;;;1.30;0.70;;;16.80;99.90;;;;;;5014600;28;20030;-77
2022/06/16 00:24:30;;;;;;;1.20;0.60;;;17.00;99.90;;;;;;5014932;28;20014;-76
2022/06/16 00:26:58;;;;;;;6.90;1.20;;;17.10;99.90;;;;;;5013357;28;20026;-78
2022/06/16 00:29:25;;;;;;;1.25;0.40;;;17.10;99.90;;;;;;5014746;28;20026;-77
2022/06/16 00:31:53;;;;;;;1.83;0.50;;;17.10;99.90;;;;;;5013356;28;20025;-77
2022/06/16 00:34:21;;;;;;;2.45;0.60;;;17.10;99.90;;;;;;5013315;28;20025;-77
2022/06/16 00:36:48;;;;;;;1.77;0.70;;;17.10;99.90;;;;;;5014925;28;20034;-78
2022/06/16 00:39:16;;;;;;;1.73;0.55;;;17.00;99.90;;;;;;5014656;28;20052;-79
2022/06/16 00:41:43;;;;;;;1.30;0.40;;;17.00;99.90;;;;;;5015573;28;20048;-78
2022/06/16 00:44:41;;;;;;;1.08;0.40;;;17.10;99.90;;;;;;5014912;28;20045;-78
2022/06/16 00:47:09;;;;;;;2.10;0.70;;;17.20;99.90;;;;;;5011931;28;20486;-81
2022/06/16 00:49:40;;;;;;;2.47;0.50;;;17.20;99.90;;;;;;5014240;28;20065;-80
2022/06/16 00:52:18;;;;;;;2.70;0.60;;;17.10;99.90;;;;;;5014934;28;20397;-79
2022/06/16 00:54:45;;;;;;;1.98;0.40;;;17.00;99.90;;;;;;5012988;28;20117;-78
2022/06/16 00:57:20;;;;;;;2.45;0.45;;;17.00;99.90;;;;;;5014675;28;20054;-77
2022/06/16 00:59:48;;;;;;;1.55;0.30;;;17.00;99.90;;;;;;5014494;28;20049;-76
2022/06/16 01:02:16;;;;;;;0.63;0.30;;;17.00;99.90;;;;;;5014240;28;20038;-77
2022/06/16 01:04:53;;;;;;;1.40;0.35;;;17.10;99.90;;;;;;5014763;28;20100;-77
2022/06/16 01:07:40;;;;;;;1.45;0.32;;;17.10;99.90;;;;;;5014413;28;20021;-77
2022/06/16 01:10:09;;;;;;;1.35;0.40;;;17.30;99.90;;;;;;5012856;28;20033;-77
2022/06/16 01:15:30;;;;;;;;;;;17.70;99.90;;;;;;5014724;28;20041;-77
2022/06/16 01:18:13;;;;;;;2.20;0.30;;;17.90;99.90;;;;;;5014734;28;20321;-77
2022/06/16 01:20:52;;;;;;;0.47;0.20;;;18.10;99.90;;;;;;5012603;28;20026;-76
2022/06/16 01:23:23;;;;;;;1.25;0.20;;;18.20;99.90;;;;;;5012670;28;20026;-77
2022/06/16 01:25:59;;;;;;;1.63;0.55;;;18.40;99.90;;;;;;5012674;28;20069;-77
2022/06/16 01:28:49;;;;;;;2.38;0.50;;;18.40;99.90;;;;;;5014299;28;20539;-78
2022/06/16 01:31:27;;;;;;;1.70;0.20;;;18.40;99.90;;;;;;5013523;28;20504;-76
2022/06/16 01:34:08;;;;;;;1.00;0.40;;;18.50;99.90;;;;;;5014202;28;20021;-77
2022/06/16 01:36:44;;;;;;;1.58;0.50;;;18.60;99.90;;;;;;5013744;28;20037;-77
2022/06/16 01:39:19;;;;;;;0.90;0.50;;;18.60;99.90;;;;;;5012522;28;20029;-76
2022/06/16 01:42:05;;;;;;;1.58;0.63;;;18.70;99.90;;;;;;5013757;28;20022;-77
2022/06/16 01:44:55;;;;;;;2.17;0.65;;;18.80;99.90;;;;;;5012581;28;20026;-77
2022/06/16 01:47:24;;;;;;;1.00;0.40;;;18.90;99.90;;;;;;5013888;28;20025;-76
2022/06/16 01:50:18;;;;;;;1.52;0.30;;;18.90;99.90;;;;;;5013655;28;20029;-77
2022/06/16 01:52:58;;;;;;;2.30;0.30;;;19.00;99.90;;;;;;5012528;28;20022;-76
2022/06/16 01:55:31;;;;;;;1.55;0.38;;;19.10;99.90;;;;;;5013503;28;20499;-75
2022/06/16 01:58:08;;;;;;;1.17;0.30;;;19.10;99.90;;;;;;5013337;28;20038;-75
2022/06/16 02:00:35;;;;;;;1.67;0.40;;;19.10;99.90;;;;;;5013210;28;20030;-76
2022/06/16 02:03:05;;;;;;;2.13;0.35;;;19.20;99.90;;;;;;5013535;28;20014;-76
2022/06/16 02:06:06;;;;;;;0.50;0.22;;;19.20;99.90;;;;;;5013526;28;20486;-76
2022/06/16 02:08:39;;;;;;;0.70;0.30;;;19.10;99.90;;;;;;5013592;28;20022;-77
2022/06/16 02:11:14;;;;;;;0.47;0.30;;;19.10;99.90;;;;;;5012111;28;20026;-77
2022/06/16 02:13:51;;;;;;;1.65;0.45;;;19.20;99.90;;;;;;5013551;28;20031;-77
2022/06/16 02:16:31;;;;;;;1.13;0.20;;;19.20;99.90;;;;;;5013647;28;20044;-76
2022/06/16 02:19:00;;;;;;;3.65;0.40;;;19.30;99.90;;;;;;5013596;28;20058;-77
2022/06/16 02:21:35;;;;;;;0.90;0.28;;;19.30;99.90;;;;;;5012051;28;20125;-76
2022/06/16 02:24:04;;;;;;;0.82;0.30;;;19.30;99.90;;;;;;5013387;28;20033;-77
2022/06/16 02:26:33;;;;;;;0.50;0.20;;;19.30;99.90;;;;;;5013337;28;20022;-78
2022/06/16 02:29:19;;;;;;;1.15;0.40;;;19.30;99.90;;;;;;5013106;28;20382;-77
2022/06/16 02:32:21;;;;;;;1.08;0.20;;;19.40;99.90;;;;;;5013335;28;20482;-77
2022/06/16 02:35:00;;;;;;;2.45;0.40;;;19.40;99.90;;;;;;4984785;28;20030;-76
2022/06/16 02:37:45;;;;;;;0.75;0.30;;;19.60;99.90;;;;;;5013547;28;20029;-76
2022/06/16 02:40:23;;;;;;;1.83;0.65;;;19.60;99.90;;;;;;5013319;28;20026;-75
2022/06/16 02:43:01;;;;;;;0.95;0.38;;;19.60;99.90;;;;;;5013353;28;20493;-77
2022/06/16 02:45:53;;;;;;;3.28;0.57;;;19.80;99.90;;;;;;5015755;28;20018;-76
2022/06/16 02:48:52;;;;;;;0.90;0.38;;;19.80;99.90;;;;;;5015821;28;20058;-76
2022/06/16 02:51:54;;;;;;;1.30;0.35;;;19.80;99.90;;;;;;5017036;28;20018;-75
2022/06/16 02:54:30;;;;;;;1.27;0.25;;;19.80;99.90;;;;;;5001592;28;20065;-75
2022/06/16 02:57:01;;;;;;;1.92;0.57;;;19.70;99.90;;;;;;5017108;28;20022;-76
2022/06/16 02:59:43;;;;;;;;;;;19.90;99.90;;;;;;5017363;28;20057;-76
2022/06/16 03:02:15;;;;;;;0.95;0.30;;;20.00;99.90;;;;;;5016562;28;19914;-77
2022/06/16 03:04:47;;;;;;;0.73;0.30;;;20.10;99.90;;;;;;5016960;28;20025;-76
2022/06/16 03:07:15;;;;;;;2.55;0.35;;;20.10;99.90;;;;;;5016526;28;20029;-76
2022/06/16 03:09:43;;;;;;;2.47;0.55;;;20.10;99.90;;;;;;5016409;28;20086;-76
2022/06/16 03:12:13;;;;;;;0.95;0.40;;;20.40;99.90;;;;;;5016755;28;20105;-76
2022/06/16 03:14:40;;;;;;;0.73;0.40;;;20.40;99.90;;;;;;5016419;28;20401;-76
2022/06/16 03:17:08;;;;;;;1.52;0.50;;;20.20;99.90;;;;;;5016251;28;20404;-76
2022/06/16 03:19:36;;;;;;;1.45;0.68;;;20.00;99.90;;;;;;5016535;28;20033;-76
2022/06/16 03:22:05;;;;;;;2.25;0.70;;;19.90;99.90;;;;;;5016139;28;20108;-75
2022/06/16 03:24:32;;;;;;;1.88;0.52;;;19.90;99.90;;;;;;5016112;28;20018;-75
2022/06/16 03:27:00;;;;;;;0.68;0.20;;;20.00;99.90;;;;;;5016134;28;20018;-75
2022/06/16 03:29:28;;;;;;;1.20;0.40;;;20.00;99.90;;;;;;5015907;28;20022;-76
2022/06/16 03:31:55;;;;;;;0.43;0.20;;;20.10;99.90;;;;;;5016094;28;20040;-75
2022/06/16 03:34:24;;;;;;;0.80;0.20;;;20.00;99.90;;;;;;5014582;28;20093;-76
2022/06/16 03:36:52;;;;;;;0.95;0.35;;;20.10;99.90;;;;;;5015925;28;20053;-74
2022/06/16 03:39:20;;;;;;;2.38;0.55;;;20.10;99.90;;;;;;5015788;28;20022;-74
2022/06/16 03:41:47;;;;;;;2.22;0.50;;;20.10;99.90;;;;;;5014327;28;20026;-74
2022/06/16 03:44:15;;;;;;;1.23;0.40;;;20.30;99.90;;;;;;5015767;28;20022;-74
2022/06/16 03:46:42;;;;;;;1.58;0.40;;;20.30;99.90;;;;;;5015788;28;20026;-72
2022/06/16 03:49:10;;;;;;;1.00;0.30;;;20.20;99.90;;;;;;5015609;28;20014;-74
2022/06/16 03:51:37;;;;;;;2.90;0.50;;;20.10;99.90;;;;;;5015590;28;20478;-74
2022/06/16 03:54:05;;;;;;;1.40;0.40;;;20.10;99.90;;;;;;5015422;28;20026;-74
2022/06/16 03:56:32;;;;;;;1.83;0.50;;;20.00;99.90;;;;;;5015521;28;20028;-73
2022/06/16 03:59:00;;;;;;;1.80;0.30;;;20.00;99.90;;;;;;5013753;28;20050;-73
2022/06/16 04:01:27;;;;;;;1.60;0.50;;;20.00;99.90;;;;;;5015409;28;20482;-75
2022/06/16 04:04:00;;;;;;;0.90;0.40;;;20.00;99.90;;;;;;5014021;28;20113;-75
2022/06/16 04:06:29;;;;;;;1.50;0.63;;;20.00;99.90;;;;;;5015450;28;20014;-75
2022/06/16 04:08:58;;;;;;;2.38;0.40;;;20.10;99.90;;;;;;5013930;28;20061;-72
2022/06/16 04:11:28;;;;;;;1.83;0.50;;;20.10;99.90;;;;;;5013952;28;20030;-75
2022/06/16 04:14:00;;;;;;;;;;;20.00;99.90;;;;;;5014277;28;20102;-71
2022/06/16 04:16:30;;;;;;;1.33;0.30;;;20.10;99.90;;;;;;5013922;28;19912;-75
2022/06/16 04:18:59;;;;;;;0.98;0.30;;;20.10;99.90;;;;;;5014886;28;20075;-74
2022/06/16 04:21:26;;;;;;;1.25;0.40;;;20.20;99.90;;;;;;5013676;28;20128;-72
2022/06/16 04:23:54;;;;;;;1.27;0.40;;;20.20;99.90;;;;;;5014877;28;20026;-72
2022/06/16 04:26:21;;;;;;;1.67;0.43;;;20.20;99.90;;;;;;5013597;28;20474;-72
2022/06/16 04:28:49;;;;;;;1.15;0.35;;;20.20;99.90;;;;;;5014869;28;20097;-73
2022/06/16 04:31:17;;;;;;;2.00;0.40;;;20.10;99.90;;;;;;5014821;28;20032;-73
2022/06/16 04:33:44;;;;;;;1.63;0.50;;;20.00;99.90;;;;;;5014796;28;20029;-74
2022/06/16 04:36:14;;;;;;;1.23;0.30;;;19.90;99.90;;;;;;5014722;28;20054;-74
2022/06/16 04:38:42;;;;;;;0.82;0.52;;;19.70;99.90;;;;;;5015073;28;20092;-73
2022/06/16 04:41:10;;;;;;;1.30;0.40;;;19.60;99.90;;;;;;5014546;28;20058;-73
2022/06/16 04:43:37;;;;;;;3.33;0.85;;;19.60;99.90;;;;;;5013323;28;20500;-72
2022/06/16 04:46:05;;;;;;;2.25;0.63;;;19.60;99.90;;;;;;5014440;28;20029;-72
2022/06/16 04:48:33;;;;;;;1.73;0.40;;;19.60;99.90;;;;;;5012979;28;20025;-73
2022/06/16 04:51:02;;;;;;;2.80;0.50;;;19.50;99.90;;;;;;5014729;28;20525;-74
2022/06/16 04:53:30;;;;;;;2.70;0.60;;;19.60;99.90;;;;;;5013078;28;20569;-77
2022/06/16 04:56:00;;;;;;;0.85;0.40;;;19.70;99.90;;;;;;5014259;28;20025;-77
2022/06/16 04:58:28;;;;;;;0.88;0.40;;;19.70;99.90;;;;;;5014099;28;20084;-76
2022/06/16 05:00:57;;;;;;;2.00;0.40;;;19.70;99.90;;;;;;5014160;28;20033;-77
2022/06/16 05:03:27;;;;;;;2.40;0.60;;;19.70;99.90;;;;;;5014231;28;20022;-77
2022/06/16 05:05:56;;;;;;;3.05;0.60;;;19.70;99.90;;;;;;5013737;28;20033;-77
2022/06/16 05:08:24;;;;;;;1.48;0.40;;;19.70;99.90;;;;;;5014168;28;20022;-76
2022/06/16 05:10:53;;;;;;;2.67;0.85;;;19.50;99.90;;;;;;5013994;28;20023;-76
2022/06/16 05:13:20;;;;;;;1.30;0.50;;;19.40;99.90;;;;;;5014213;28;20550;-76
2022/06/16 05:15:48;;;;;;;2.30;0.85;;;19.30;99.90;;;;;;5014151;28;20026;-76
2022/06/16 05:18:15;;;;;;;1.02;0.40;;;19.10;99.90;;;;;;5013995;28;20057;-77
2022/06/16 05:20:43;;;;;;;2.13;0.40;;;19.00;99.90;;;;;;5013900;28;20040;-77
2022/06/16 05:23:14;;;;;;;3.05;0.65;;;18.90;99.90;;;;;;5012555;28;20029;-77
2022/06/16 05:25:42;;;;;;;1.25;0.52;;;18.90;99.90;;;;;;5014095;28;20026;-77
2022/06/16 05:28:11;;;;;;;2.15;0.65;;;18.90;99.90;;;;;;5013820;28;20037;-77
2022/06/16 05:30:38;;;;;;;2.50;0.70;;;18.90;99.90;;;;;;5013580;28;20022;-76
2022/06/16 05:33:06;;;;;;;2.33;0.60;;;18.90;99.90;;;;;;5012381;28;20048;-77
2022/06/16 05:35:33;;;;;;;1.55;0.60;;;18.90;99.90;;;;;;5012284;28;20397;-77
2022/06/16 05:38:01;;;;;;;1.33;0.70;;;18.90;99.90;;;;;;5013631;28;20019;-77
2022/06/16 05:40:28;;;;;;;1.10;0.38;;;18.80;99.90;;;;;;5012392;28;20022;-76
2022/06/16 05:42:56;;;;;;;1.55;0.68;;;18.80;99.90;;;;;;5013468;28;20128;-76
2022/06/16 05:45:23;;;;;;;2.65;0.70;;;18.80;99.90;;;;;;5013656;28;20473;-77
2022/06/16 05:47:50;;;;;;;1.00;0.40;;;18.90;99.90;;;;;;5013488;28;20018;-75
2022/06/16 05:50:18;;;;;;;0.95;0.40;;;18.90;99.90;;;;;;5014072;28;20022;-72
2022/06/16 05:52:46;;;;;;;4.93;0.70;;;18.90;99.90;;;;;;5013359;28;20022;-72
2022/06/16 05:55:15;;;;;;;1.23;0.60;;;18.90;99.90;;;;;;5013388;28;20021;-73
2022/06/16 05:57:42;;;;;;;2.72;0.73;;;18.90;99.90;;;;;;5011679;28;20080;-73
2022/06/16 06:00:11;;;;;;;2.78;0.90;;;18.80;99.90;;;;;;5013348;28;20025;-72
2022/06/16 06:02:38;;;;;;;1.55;0.75;;;18.70;99.90;;;;;;5011741;28;20048;-74
2022/06/16 06:05:07;;;;;;;1.48;0.60;;;18.70;99.90;;;;;;5013236;28;20474;-75
2022/06/16 06:18:36;;;;;;;1.52;0.50;;;18.60;99.90;;;;;;5012347;28;20037;-75
2022/06/16 06:21:03;;;;;;;1.38;0.60;;;18.50;99.90;;;;;;5011626;28;20030;-75
2022/06/16 06:23:30;;;;;;;1.40;0.38;;;18.40;99.90;;;;;;5013006;28;20029;-75
2022/06/16 06:25:58;;;;;;;2.95;0.65;;;18.20;99.90;;;;;;5013112;28;20022;-75
2022/06/16 06:28:25;;;;;;;1.45;0.45;;;18.10;99.90;;;;;;5011630;28;20200;-74
2022/06/16 06:30:53;;;;;;;5.28;0.95;;;18.10;99.90;;;;;;5011413;28;20486;-73
2022/06/16 06:33:20;;;;;;;3.22;1.00;;;18.00;99.90;;;;;;5011426;28;20034;-75
2022/06/16 06:35:48;;;;;;;3.08;0.93;;;18.00;99.90;;;;;;5011441;28;20022;-74
2022/06/16 06:38:15;;;;;;;2.72;1.20;;;18.00;99.90;;;;;;5011654;28;20444;-76
2022/06/16 06:40:43;;;;;;;2.08;0.80;;;18.00;99.90;;;;;;5011531;28;20117;-76
2022/06/16 06:43:10;;;;;;;1.27;0.50;;;18.00;99.90;;;;;;5012181;28;20026;-76
2022/06/16 06:45:37;;;;;;;1.98;0.73;;;17.90;99.90;;;;;;5011579;28;20018;-76
2022/06/16 06:48:07;;;;;;;1.88;0.90;;;17.80;99.90;;;;;;5011419;28;20066;-75
2022/06/16 06:50:40;;;;;;;1.90;0.70;;;17.80;99.90;;;;;;5011437;28;20029;-75
2022/06/16 06:53:09;;;;;;;3.00;0.90;;;17.70;99.90;;;;;;5011142;28;20117;-75
2022/06/16 06:55:41;;;;;;;2.50;0.90;;;17.70;99.90;;;;;;5012519;28;20014;-75
2022/06/16 06:58:10;;;;;;;1.02;0.60;;;17.70;99.90;;;;;;5011179;28;20401;-75
2022/06/16 07:00:38;;;;;;;1.52;0.65;;;17.60;99.90;;;;;;5011298;28;20028;-75
2022/06/16 07:03:05;;;;;;;3.10;1.00;;;17.60;99.90;;;;;;5012627;28;20198;-75
2022/06/16 07:05:32;;;;;;;1.30;0.85;;;17.50;99.90;;;;;;5012643;28;20022;-75
2022/06/16 07:08:00;;;;;;;2.47;1.20;;;17.60;99.90;;;;;;5012650;28;20022;-76
2022/06/16 07:10:27;;;;;;;4.70;2.92;;;17.50;99.90;;;;;;5011837;28;20018;-76
2022/06/16 07:12:55;;;;;;;3.63;2.42;;;17.40;99.90;;;;;;5012557;28;20028;-76
2022/06/16 07:15:22;;;;;;;4.80;2.30;;;17.40;99.90;;;;;;5012612;28;20048;-76
2022/06/16 07:17:50;;;;;;;2.75;1.70;;;17.40;99.90;;;;;;5012576;28;20509;-76
2022/06/16 07:20:18;;;;;;;3.75;1.40;;;17.30;99.90;;;;;;5011144;28;20025;-76
2022/06/16 07:22:46;;;;;;;2.55;1.20;;;17.30;99.90;;;;;;5012459;28;20033;-75
2022/06/16 07:25:16;;;;;;;2.78;1.13;;;17.30;99.90;;;;;;5012613;28;20491;-76
2022/06/16 07:27:43;;;;;;;7.80;0.90;;;17.20;99.90;;;;;;5011160;28;20026;-76
2022/06/16 07:30:16;;;;;;;1.35;0.80;;;17.10;99.90;;;;;;5014604;28;20029;-76
2022/06/16 07:32:45;;;;;;;2.95;1.02;;;17.00;99.90;;;;;;5014743;28;20037;-76
2022/06/16 07:35:15;;;;;;;1.85;0.88;;;16.90;99.90;;;;;;5014829;28;20057;-76
2022/06/16 07:37:43;;;;;;;2.55;0.95;;;16.70;99.90;;;;;;5016168;28;20018;-76
2022/06/16 07:40:11;;;;;;;2.53;1.00;;;16.60;99.90;;;;;;5016075;28;20037;-75
2022/06/16 07:42:39;;;;;;;2.35;1.17;;;16.40;99.90;;;;;;5015982;28;20117;-76
2022/06/16 07:45:07;;;;;;;1.73;1.05;;;16.20;99.90;;;;;;5015985;28;20096;-76
2022/06/16 07:47:34;;;;;;;4.55;1.35;;;16.20;99.90;;;;;;5015772;28;20109;-76
2022/06/16 07:50:04;;;;;;;1.83;1.17;;;16.20;99.90;;;;;;5014404;28;20022;-76
2022/06/16 07:52:31;;;;;;;5.68;1.23;;;16.20;99.90;;;;;;5015724;28;20457;-75
2022/06/16 07:54:59;;;;;;;2.65;1.20;;;16.10;99.90;;;;;;5014349;28;20025;-75
2022/06/16 07:57:27;;;;;;;2.97;1.20;;;16.00;99.90;;;;;;5015289;28;20045;-76
2022/06/16 07:59:58;;;;;;;2.47;1.20;;;15.90;99.90;;;;;;5015640;28;20030;-75
2022/06/16 08:02:27;;;;;;;2.75;1.35;;;15.80;99.90;;;;;;5015616;28;20485;-75
2022/06/16 08:04:55;;;;;;;4.63;1.90;;;15.70;99.90;;;;;;5014341;28;20370;-75
2022/06/16 08:07:22;;;;;;;4.55;2.60;;;15.70;99.90;;;;;;5015516;28;20037;-76
2022/06/16 08:09:50;;;;;;;3.85;2.00;;;15.60;99.90;;;;;;5014124;28;20026;-75
2022/06/16 08:12:19;;;;;;;3.03;1.70;;;15.60;99.90;;;;;;5014063;28;20056;-75
2022/06/16 08:14:48;;;;;;;3.35;1.98;;;15.50;99.90;;;;;;5015374;28;20030;-75
2022/06/16 08:17:24;;;;;;;2.97;1.90;;;15.60;99.90;;;;;;5013853;28;20106;-75
2022/06/16 08:19:53;;;;;;;5.90;2.08;;;15.50;99.90;;;;;;5015331;28;20029;-76
2022/06/16 08:22:21;;;;;;;3.28;2.10;;;15.60;99.90;;;;;;5015181;28;20069;-76
2022/06/16 08:24:48;;;;;;;3.80;2.28;;;15.60;99.90;;;;;;5015257;28;20018;-76
2022/06/16 08:27:18;;;;;;;3.80;2.17;;;15.50;99.90;;;;;;5014028;28;20030;-76
2022/06/16 08:29:46;;;;;;;6.03;3.00;;;15.40;99.90;;;;;;5015127;28;20018;-76
2022/06/16 08:32:17;;;;;;;2.95;1.58;;;15.40;99.90;;;;;;5013805;28;20026;-76
2022/06/16 08:34:45;;;;;;;4.57;1.30;;;15.40;99.90;;;;;;5013884;28;20542;-76
2022/06/16 08:37:13;;;;;;;2.80;1.20;;;15.40;99.90;;;;;;5015000;28;20528;-76
2022/06/16 08:39:40;;;;;;;1.73;1.00;;;15.40;99.90;;;;;;5013662;28;20504;-76
2022/06/16 08:42:13;;;;;;;2.97;1.60;;;15.40;99.90;;;;;;5013011;28;20026;-76
2022/06/16 08:44:49;;;;;;;2.08;1.10;;;15.30;99.90;;;;;;5015091;28;20026;-76
2022/06/16 08:47:24;;;;;;;2.13;1.15;;;15.30;99.90;;;;;;5013448;28;20119;-75
2022/06/16 08:50:09;;;;;;;2.83;1.33;;;15.20;99.90;;;;;;5015434;28;20018;-76
2022/06/16 08:52:55;;;;;;;2.03;1.30;;;15.00;99.90;;;;;;5013452;28;20517;-77
2022/06/16 08:55:27;;;;;;;1.85;1.08;;;15.00;99.90;;;;;;5014778;28;20540;-76
2022/06/16 08:58:11;;;;;;;1.10;0.98;;;14.80;99.90;;;;;;5013093;28;20074;-77
2022/06/16 09:00:47;;;;;;;1.23;0.80;;;14.70;99.90;;;;;;5013532;28;20030;-76
2022/06/16 09:03:40;;;;;;;2.17;1.50;;;14.60;99.90;;;;;;5014544;28;20425;-76
2022/06/16 09:06:24;;;;;;;2.05;1.10;;;14.50;99.90;;;;;;5013177;28;20118;-74
2022/06/16 09:09:14;;;;;;;1.88;0.82;;;14.50;99.90;;;;;;5012208;28;20026;-74
2022/06/16 09:12:05;;;;;;;1.08;0.50;;;14.50;99.90;;;;;;5014329;28;20414;-73
2022/06/16 09:15:11;;;;;;;2.47;1.00;;;14.60;99.90;;;;;;5014830;28;20026;-75
2022/06/16 09:17:50;;;;;;;1.70;0.75;;;14.70;99.90;;;;;;5013006;28;20076;-74
2022/06/16 09:20:25;;;;;;;3.45;1.00;;;14.70;99.90;;;;;;5012976;28;20022;-75
2022/06/16 09:23:04;;;;;;;2.83;0.98;;;14.70;99.90;;;;;;5014215;28;20022;-74
2022/06/16 09:25:57;;;;;;;1.63;0.70;;;14.60;99.90;;;;;;5014134;28;20533;-74
2022/06/16 09:28:37;;;;;;;2.72;0.68;;;14.70;99.90;;;;;;5014097;28;20018;-75
2022/06/16 09:31:11;;;;;;;2.67;0.90;;;14.80;99.90;;;;;;5012671;28;20026;-74
2022/06/16 09:33:55;;;;;;;1.67;0.73;;;14.70;99.90;;;;;;5014005;28;20030;-74
2022/06/16 09:36:31;;;;;;;1.25;0.88;;;14.80;99.90;;;;;;5014284;28;20022;-74
2022/06/16 09:39:02;;;;;;;1.98;0.90;;;14.80;99.90;;;;;;5012575;28;20026;-74
2022/06/16 09:44:45;;;;;;;1.38;0.90;;;14.70;99.90;;;;;;5013788;28;20033;-76
2022/06/16 09:47:19;;;;;;;2.60;1.00;;;14.60;99.90;;;;;;5011976;28;20048;-75
2022/06/16 09:50:18;;;;;;;1.55;1.08;;;14.60;99.90;;;;;;5013747;28;20072;-75
2022/06/16 09:52:57;;;;;;;1.30;0.93;;;14.50;99.90;;;;;;5013413;28;20076;-75
2022/06/16 09:55:58;;;;;;;1.98;1.10;;;14.50;99.90;;;;;;5013624;28;20537;-74
2022/06/16 09:58:34;;;;;;;2.17;1.13;;;14.40;99.90;;;;;;5011996;28;20128;-73
2022/06/16 10:01:08;;;;;;;1.55;1.08;;;14.40;99.90;;;;;;5012205;28;20042;-75
2022/06/16 10:03:35;;;;;;;1.42;0.80;;;14.40;99.90;;;;;;5013500;28;20032;-75
2022/06/16 10:06:37;;;;;;;3.55;1.00;;;14.40;99.90;;;;;;5013410;28;20425;-74
2022/06/16 10:09:19;;;;;;;2.30;0.77;;;14.40;99.90;;;;;;5013418;28;20044;-74
2022/06/16 10:11:55;;;;;;;2.75;0.98;;;14.40;99.90;;;;;;5013622;28;20101;-74
2022/06/16 10:14:40;;;;;;;1.48;0.70;;;14.40;99.90;;;;;;5013640;28;20410;-74
2022/06/16 10:17:11;;;;;;;1.23;0.80;;;14.40;99.90;;;;;;5013484;28;20033;-75
2022/06/16 10:19:44;;;;;;;2.80;0.85;;;14.50;99.90;;;;;;5012068;28;20030;-74
2022/06/16 10:22:17;;;;;;;1.23;0.85;;;14.40;99.90;;;;;;5011855;28;20162;-73
2022/06/16 10:25:01;;;;;;;1.40;0.80;;;14.40;99.90;;;;;;5013237;28;20022;-72
2022/06/16 10:27:36;;;;;;;1.23;0.73;;;14.30;99.90;;;;;;5011859;28;20085;-74
2022/06/16 10:30:08;;;;;;;1.88;0.82;;;14.20;99.90;;;;;;5013350;28;20026;-73
2022/06/16 10:32:47;;;;;;;1.58;0.68;;;14.20;99.90;;;;;;5013157;28;20022;-74
2022/06/16 10:35:21;;;;;;;1.52;1.00;;;14.20;99.90;;;;;;5013139;28;20026;-74
2022/06/16 10:37:52;;;;;;;1.80;0.80;;;14.10;99.90;;;;;;5011816;28;20029;-74
2022/06/16 10:40:38;;;;;;;1.83;0.73;;;14.10;99.90;;;;;;5013176;28;20025;-73
2022/06/16 10:43:18;;;;;;;4.38;1.00;;;14.00;99.90;;;;;;5013072;28;20030;-75
2022/06/16 10:46:00;;;;;;;1.10;1.00;;;14.00;99.90;;;;;;5013036;28;20515;-73
2022/06/16 10:48:36;;;;;;;5.35;1.60;;;13.90;99.90;;;;;;5013341;28;20022;-74
2022/06/16 10:51:10;;;;;;;2.55;1.30;;;13.80;99.90;;;;;;5013020;28;20032;-73
2022/06/16 10:53:42;;;;;;;3.83;1.85;;;13.70;99.90;;;;;;5011752;28;20046;-74
2022/06/16 10:56:19;;;;;;;5.40;1.60;;;13.60;99.90;;;;;;5012987;28;20105;-74
2022/06/16 10:59:02;;;;;;;4.65;1.83;;;13.50;99.90;;;;;;5012626;28;20121;-74
2022/06/16 11:01:40;;;;;;;4.38;1.60;;;13.40;99.90;;;;;;5012872;28;20084;-74
2022/06/16 11:04:14;;;;;;;3.63;1.55;;;13.30;99.90;;;;;;5013624;28;20022;-74
2022/06/16 11:06:47;;;;;;;2.80;1.63;;;13.20;99.90;;;;;;5016650;28;20045;-74
2022/06/16 11:09:20;;;;;;;1.70;1.20;;;13.10;99.90;;;;;;5016727;28;20551;-74
2022/06/16 11:12:06;;;;;;;3.55;1.58;;;13.10;99.90;;;;;;5016875;28;20028;-74
2022/06/16 11:14:45;;;;;;;3.45;1.50;;;13.10;99.90;;;;;;5015232;28;20394;-74
2022/06/16 11:17:55;;;;;;;1.92;1.25;;;13.10;99.90;;;;;;5015166;28;20022;-74
2022/06/16 11:20:30;;;;;;;1.85;1.20;;;13.00;99.90;;;;;;4975283;28;20402;-74
2022/06/16 11:22:59;;;;;;;3.15;1.30;;;12.90;99.90;;;;;;4975153;28;20080;-74
2022/06/16 11:25:36;;;;;;;2.80;1.30;;;13.00;99.90;;;;;;4999005;28;20068;-73
2022/06/16 11:28:04;;;;;;;1.60;1.00;;;13.00;99.90;;;;;;5015031;28;20022;-74
2022/06/16 11:30:41;;;;;;;2.20;1.30;;;12.90;99.90;;;;;;5016174;28;20384;-74
2022/06/16 11:36:14;;;;;;;2.15;1.00;;;12.70;99.90;;;;;;5016273;28;20381;-73
2022/06/16 11:39:07;;;;;;;2.55;1.30;;;12.50;99.90;;;;;;5015844;28;20014;-72
2022/06/16 11:41:34;;;;;;;2.80;1.55;;;12.50;99.90;;;;;;5016108;28;20101;-72
2022/06/16 11:44:26;;;;;;;1.77;0.98;;;12.40;99.90;;;;;;5015737;28;20057;-72
2022/06/16 11:47:37;;;;;;;2.95;1.00;;;12.30;99.90;;;;;;5015667;28;20104;-73
2022/06/16 11:50:21;;;;;;;1.33;0.90;;;12.30;99.90;;;;;;5014898;28;20030;-73
2022/06/16 11:53:27;;;;;;;2.42;1.00;;;12.20;99.90;;;;;;5016170;28;20437;-73
2022/06/16 11:56:32;;;;;;;4.65;1.20;;;12.10;99.90;;;;;;5015639;28;20079;-75
2022/06/16 11:59:30;;;;;;;1.60;1.00;;;12.10;99.90;;;;;;5014007;28;20153;-75
2022/06/16 12:02:17;;;;;;;2.17;1.20;;;12.00;99.90;;;;;;5015542;28;20034;-75
2022/06/16 12:05:09;;;;;;;1.95;1.20;;;12.00;99.90;;;;;;5015570;28;20096;-74
2022/06/16 12:08:25;;;;;;;1.50;1.00;;;11.90;99.90;;;;;;5015694;28;20022;-74
2022/06/16 12:10:56;;;;;;;2.58;1.17;;;11.90;99.90;;;;;;5006153;28;20045;-74
2022/06/16 12:14:08;;;;;;;1.10;0.80;;;11.80;99.90;;;;;;5015446;28;20018;-74
2022/06/16 12:16:40;;;;;;;2.42;1.30;;;11.80;99.90;;;;;;5013166;28;20121;-74
2022/06/16 12:19:16;;;;;;;1.38;0.90;;;11.90;99.90;;;;;;5015182;28;20068;-74
2022/06/16 12:21:55;;;;;;;1.75;1.33;;;12.00;99.90;;;;;;5015398;28;20030;-73
2022/06/16 12:24:55;;;;;;;2.42;1.20;;;12.10;99.90;;;;;;5014996;28;20451;-73
2022/06/16 12:27:49;;;;;;;1.85;0.90;;;12.20;99.90;;;;;;4981497;28;20068;-73
2022/06/16 12:30:25;;;;;;;2.92;1.48;;;12.30;99.90;;;;;;5015049;28;20033;-73
2022/06/16 12:33:03;;;;;;;2.22;1.42;;;12.30;99.90;;;;;;5015001;28;20080;-74
2022/06/16 12:36:00;;;;;;;2.78;1.58;;;12.20;99.90;;;;;;5014991;28;20033;-73
2022/06/16 12:38:54;;;;;;;2.78;1.25;;;12.20;99.90;;;;;;5013348;28;20030;-73
2022/06/16 12:41:54;;;;;;;1.90;1.15;;;12.10;99.90;;;;;;5014651;28;20405;-73
2022/06/16 12:44:48;;;;;;;2.25;1.40;;;12.00;99.90;;;;;;5006983;28;20041;-73
2022/06/16 12:47:48;;;;;;;2.42;1.20;;;11.90;99.90;;;;;;5014615;28;20057;-74
2022/06/16 12:50:31;;;;;;;3.42;0.90;;;11.90;99.90;;;;;;5010411;28;20387;-73
2022/06/16 12:53:08;;;;;;;1.90;1.20;;;11.80;99.90;;;;;;5014711;28;20049;-73
2022/06/16 12:55:53;;;;;;;2.80;1.00;;;11.80;99.90;;;;;;5014613;28;20524;-73
2022/06/16 12:58:36;;;;;;;1.65;1.02;;;11.80;99.90;;;;;;5014076;28;20217;-73
2022/06/16 13:01:06;;;;;;;1.40;0.98;;;11.80;99.90;;;;;;5014319;28;20478;-74
2022/06/16 13:03:57;;;;;;;3.03;1.10;;;11.70;99.90;;;;;;5012998;28;20025;-74
2022/06/16 13:06:27;;;;;;;1.98;0.95;;;11.60;99.90;;;;;;5014379;28;20028;-74
2022/06/16 13:09:01;;;;;;;3.35;1.38;;;11.50;99.90;;;;;;5012800;28;20094;-74
2022/06/16 13:11:36;;;;;;;1.88;1.10;;;11.40;99.90;;;;;;5012727;28;20026;-73
2022/06/16 13:14:14;;;;;;;3.30;1.27;;;11.30;99.90;;;;;;5014277;28;20386;-74
2022/06/16 13:16:44;;;;;;;2.88;1.10;;;11.20;99.90;;;;;;5014323;28;20021;-73
2022/06/16 13:19:31;;;;;;;2.47;1.40;;;11.10;99.90;;;;;;5012792;28;20080;-73
2022/06/16 13:22:03;;;;;;;3.15;1.40;;;11.00;99.90;;;;;;5012695;28;20490;-74
2022/06/16 13:24:54;;;;;;;2.05;1.33;;;10.90;99.90;;;;;;5012657;28;20533;-72
2022/06/16 13:27:35;;;;;;;2.58;1.83;;;10.90;99.90;;;;;;5013489;28;20076;-73
2022/06/16 13:30:06;;;;;;;1.98;1.67;;;10.80;99.90;;;;;;5014106;28;20068;-74
2022/06/16 13:32:36;;;;;;;;;;;10.70;99.90;;;;;;5014248;28;20022;-76
2022/06/16 13:35:23;;;;;;;2.55;1.80;;;10.70;99.90;;;;;;5013776;28;19988;-75
2022/06/16 13:38:06;;;;;;;2.53;1.70;;;10.60;99.90;;;;;;4993248;28;20088;-74
2022/06/16 13:40:36;;;;;;;2.20;1.60;;;10.50;99.90;;;;;;5013706;28;20029;-74
2022/06/16 13:43:11;;;;;;;2.90;1.60;;;10.50;99.90;;;;;;5012280;28;20076;-74
2022/06/16 13:46:00;;;;;;;3.10;1.85;;;10.50;99.90;;;;;;5012262;28;20493;-74
2022/06/16 13:48:44;;;;;;;3.03;1.90;;;10.50;99.90;;;;;;5013658;28;20026;-74